Time;durP1;ratioP1;P1;durP2;ratioP2;P2;SDS_P1;SDS_P2;PMS_P1;PMS_P2;Temp;Humidity;BMP_temperature;BMP_pressure;BME280_temperature;BME280_humidity;BME280_pressure;Samples;Min_cycle;Max_cycle;Signal;HPM_P1;HPM_P2
2022/08/14 00:00:19;;;;;;;7.90;6.65;;;;;;;;;;6122745;23;20026;-51
2022/08/14 00:02:46;;;;;;;8.45;6.03;;;;;;;;;;6122374;23;20081;-66
2022/08/14 00:05:21;;;;;;;9.80;6.50;;;;;;;;;;6122586;23;20026;-53
2022/08/14 00:07:48;;;;;;;;;;;;;;;;;;6122315;23;20472;-51
2022/08/14 00:10:18;;;;;;;7.43;6.38;;;;;;;;;;6122415;23;20294;-51
2022/08/14 00:13:13;;;;;;;8.65;6.38;;;;;;;;;;6121745;23;20466;-51
2022/08/14 00:15:44;;;;;;;8.20;5.82;;;;;;;;;;6120662;23;20026;-56
2022/08/14 00:18:19;;;;;;;6.07;5.30;;;;;;;;;;6121426;23;20026;-55
2022/08/14 00:21:07;;;;;;;8.68;6.35;;;;;;;;;;6121930;23;20109;-43
2022/08/14 00:23:42;;;;;;;6.97;5.50;;;;;;;;;;6119749;23;20499;-61
2022/08/14 00:26:09;;;;;;;7.80;6.15;;;;;;;;;;6121205;23;20057;-61
2022/08/14 00:28:50;;;;;;;9.02;6.00;;;;;;;;;;6120551;23;20054;-61
2022/08/14 00:31:24;;;;;;;12.77;7.40;;;;;;;;;;6121489;23;20050;-61
2022/08/14 00:34:10;;;;;;;10.05;7.55;;;;;;;;;;6120926;23;20025;-61
2022/08/14 00:37:04;;;;;;;8.15;6.32;;;;;;;;;;6121842;23;20054;-61
2022/08/14 00:39:38;;;;;;;9.27;6.78;;;;;;;;;;6119576;23;20018;-54
2022/08/14 00:42:22;;;;;;;10.27;6.82;;;;;;;;;;6122012;23;20793;-51
2022/08/14 00:45:11;;;;;;;9.05;6.70;;;;;;;;;;6119955;23;20017;-55
2022/08/14 00:47:48;;;;;;;14.50;6.57;;;;;;;;;;6119985;23;20096;-54
2022/08/14 00:50:20;;;;;;;9.30;7.35;;;;;;;;;;6119786;23;20026;-51
2022/08/14 00:52:55;;;;;;;8.98;7.88;;;;;;;;;;6120723;23;20081;-55
2022/08/14 00:55:24;;;;;;;11.93;7.53;;;;;;;;;;6120731;23;20050;-52
2022/08/14 01:01:04;;;;;;;8.18;7.05;;;;;;;;;;6121993;23;20025;-44
2022/08/14 01:03:39;;;;;;;8.60;7.35;;;;;;;;;;6119145;23;20100;-44
2022/08/14 01:06:09;;;;;;;9.27;6.57;;;;;;;;;;6121222;23;20026;-45
2022/08/14 01:08:42;;;;;;;8.70;6.05;;;;;;;;;;6121026;23;20029;-44
2022/08/14 01:11:25;;;;;;;7.93;5.85;;;;;;;;;;6121179;23;20033;-44
2022/08/14 01:14:01;;;;;;;16.48;6.93;;;;;;;;;;6120692;23;20101;-44
2022/08/14 01:16:54;;;;;;;11.75;5.85;;;;;;;;;;6121359;23;20037;-65
2022/08/14 01:22:17;;;;;;;9.98;6.88;;;;;;;;;;6121537;23;20133;-60
2022/08/14 01:24:45;;;;;;;8.02;7.22;;;;;;;;;;6118995;23;20547;-61
2022/08/14 01:27:17;;;;;;;11.15;8.00;;;;;;;;;;6120873;23;20026;-61
2022/08/14 01:29:55;;;;;;;12.63;7.63;;;;;;;;;;6120090;23;20049;-61
2022/08/14 01:32:30;;;;;;;11.00;6.80;;;;;;;;;;6121029;23;20030;-61
2022/08/14 01:35:09;;;;;;;10.30;7.25;;;;;;;;;;6119617;23;20405;-54
2022/08/14 01:37:56;;;;;;;10.55;8.32;;;;;;;;;;6120772;23;20109;-44
2022/08/14 01:40:38;;;;;;;8.52;7.55;;;;;;;;;;6118111;23;20032;-45
2022/08/14 01:43:13;;;;;;;9.57;7.15;;;;;;;;;;6121357;23;20024;-46
2022/08/14 01:45:52;;;;;;;10.65;7.57;;;;;;;;;;6121458;23;20026;-44
2022/08/14 01:48:32;;;;;;;9.00;7.85;;;;;;;;;;6119268;23;20522;-44
2022/08/14 01:51:07;;;;;;;9.90;7.78;;;;;;;;;;6121636;23;20093;-47
2022/08/14 01:53:47;;;;;;;11.90;7.88;;;;;;;;;;6119449;23;20033;-45
2022/08/14 01:56:34;;;;;;;10.90;8.23;;;;;;;;;;6120225;23;20451;-54
2022/08/14 01:59:09;;;;;;;10.95;8.20;;;;;;;;;;6120320;23;20611;-52
2022/08/14 02:01:45;;;;;;;10.95;8.20;;;;;;;;;;6120435;23;20065;-53
2022/08/14 02:04:28;;;;;;;9.43;7.80;;;;;;;;;;6120607;23;20022;-50
2022/08/14 02:07:22;;;;;;;14.50;8.02;;;;;;;;;;6120996;23;20057;-53
2022/08/14 02:10:10;;;;;;;14.07;8.27;;;;;;;;;;6119560;23;20028;-55
2022/08/14 02:12:52;;;;;;;8.68;7.05;;;;;;;;;;6120536;23;20022;-53
2022/08/14 02:15:24;;;;;;;8.85;7.95;;;;;;;;;;6119916;23;20026;-53
2022/08/14 02:18:00;;;;;;;11.75;8.38;;;;;;;;;;6119845;23;20514;-60
2022/08/14 02:20:32;;;;;;;11.05;8.77;;;;;;;;;;6120662;23;20022;-61
2022/08/14 02:23:08;;;;;;;10.30;8.50;;;;;;;;;;6119972;23;20029;-61
2022/08/14 02:25:37;;;;;;;11.80;8.88;;;;;;;;;;6119932;23;20033;-61
2022/08/14 02:28:06;;;;;;;11.88;8.63;;;;;;;;;;6120926;23;20029;-61
2022/08/14 02:31:00;;;;;;;10.25;8.25;;;;;;;;;;6119677;23;20636;-60
2022/08/14 02:33:28;;;;;;;9.98;8.13;;;;;;;;;;6119772;23;20026;-65
2022/08/14 02:36:07;;;;;;;9.32;8.32;;;;;;;;;;6121130;23;20026;-65
2022/08/14 02:38:54;;;;;;;11.55;8.32;;;;;;;;;;6119306;23;20108;-65
2022/08/14 02:41:35;;;;;;;11.10;8.13;;;;;;;;;;6061528;23;20402;-64
2022/08/14 02:44:11;;;;;;;9.30;7.97;;;;;;;;;;6062159;23;20549;-65
2022/08/14 02:46:56;;;;;;;9.57;7.88;;;;;;;;;;6062554;23;20069;-63
2022/08/14 02:49:28;;;;;;;10.95;8.43;;;;;;;;;;6062539;23;20030;-64
2022/08/14 02:52:05;;;;;;;10.60;7.80;;;;;;;;;;6062643;23;20023;-53
2022/08/14 02:54:52;;;;;;;9.38;8.05;;;;;;;;;;6061288;23;20029;-53
2022/08/14 02:57:26;;;;;;;8.30;7.47;;;;;;;;;;6062021;23;20065;-53
2022/08/14 03:00:07;;;;;;;12.32;8.02;;;;;;;;;;6062384;23;20022;-53
2022/08/14 03:02:44;;;;;;;;;;;;;;;;;;6063282;23;20090;-54
2022/08/14 03:05:22;;;;;;;9.25;7.97;;;;;;;;;;6062163;23;19996;-52
2022/08/14 03:08:06;;;;;;;11.48;8.13;;;;;;;;;;6062688;23;20039;-52
2022/08/14 03:10:34;;;;;;;17.05;8.52;;;;;;;;;;6061631;23;20027;-52
2022/08/14 03:13:15;;;;;;;10.23;7.20;;;;;;;;;;6062381;23;20369;-63
2022/08/14 03:15:49;;;;;;;10.00;8.43;;;;;;;;;;6061657;23;20031;-43
2022/08/14 03:18:24;;;;;;;;;;;;;;;;;;6062710;23;20031;-43
2022/08/14 03:21:02;;;;;;;8.07;6.00;;;;;;;;;;6062224;23;19921;-45
2022/08/14 07:25:43;;;;;;;9.27;4.47;;;;;;;;;;5854141;22;8379302;-61
2022/08/14 07:28:30;;;;;;;7.00;4.03;;;;;;;;;;6211199;23;20032;-60
2022/08/14 07:30:59;;;;;;;4.80;3.80;;;;;;;;;;6210452;23;20039;-61
2022/08/14 07:33:35;;;;;;;10.50;4.40;;;;;;;;;;6210902;23;20105;-61
2022/08/14 07:36:04;;;;;;;5.50;3.75;;;;;;;;;;6210055;23;20020;-61
2022/08/14 07:38:52;;;;;;;6.75;3.95;;;;;;;;;;6210627;23;20250;-61
2022/08/14 07:41:28;;;;;;;7.50;3.78;;;;;;;;;;6210796;23;20044;-53
2022/08/14 07:44:01;;;;;;;5.95;3.35;;;;;;;;;;6207889;23;20028;-50
2022/08/14 07:46:56;;;;;;;7.53;4.00;;;;;;;;;;6205943;23;20735;-54
2022/08/14 07:49:24;;;;;;;9.10;3.58;;;;;;;;;;6209345;23;20484;-53
2022/08/14 07:51:58;;;;;;;6.40;3.65;;;;;;;;;;6210545;23;20071;-54
2022/08/14 07:54:26;;;;;;;5.05;3.30;;;;;;;;;;6206348;23;20083;-53
2022/08/14 07:56:57;;;;;;;7.03;3.45;;;;;;;;;;6205711;23;20025;-65
2022/08/14 07:59:40;;;;;;;5.45;3.35;;;;;;;;;;6208209;23;20095;-51
2022/08/14 08:02:11;;;;;;;5.78;3.58;;;;;;;;;;6206407;23;20020;-51
2022/08/14 08:04:49;;;;;;;5.03;3.73;;;;;;;;;;6208774;23;20028;-55
2022/08/14 08:07:21;;;;;;;3.40;3.10;;;;;;;;;;6209057;23;20255;-53
2022/08/14 08:09:56;;;;;;;4.28;3.08;;;;;;;;;;6206567;23;20021;-54
2022/08/14 08:12:24;;;;;;;5.35;3.22;;;;;;;;;;6208969;23;20021;-55
2022/08/14 08:14:58;;;;;;;6.88;3.40;;;;;;;;;;6207943;23;20048;-58
2022/08/14 08:17:38;;;;;;;9.10;3.20;;;;;;;;;;6207705;23;20052;-64
2022/08/14 08:20:27;;;;;;;6.13;3.17;;;;;;;;;;6207251;23;20029;-61
2022/08/14 08:23:02;;;;;;;7.88;3.90;;;;;;;;;;6205775;23;20020;-61
2022/08/14 08:25:41;;;;;;;6.30;3.58;;;;;;;;;;6208697;23;20028;-62
2022/08/14 08:28:19;;;;;;;7.75;5.60;;;;;;;;;;6209707;23;20059;-60
2022/08/14 08:30:55;;;;;;;5.10;4.00;;;;;;;;;;6208999;23;20397;-61
2022/08/14 08:33:30;;;;;;;5.20;3.47;;;;;;;;;;6208788;23;20063;-61
2022/08/14 08:36:07;;;;;;;4.05;3.17;;;;;;;;;;6209348;23;20027;-47
2022/08/14 08:38:45;;;;;;;5.97;3.33;;;;;;;;;;6208473;23;20024;-67
2022/08/14 08:41:47;;;;;;;4.55;3.42;;;;;;;;;;6207967;23;20493;-68
2022/08/14 08:44:29;;;;;;;11.27;3.42;;;;;;;;;;6208653;23;20418;-67
2022/08/14 08:47:04;;;;;;;4.30;3.30;;;;;;;;;;6209174;23;20028;-67
2022/08/14 08:49:42;;;;;;;4.80;3.50;;;;;;;;;;6209092;23;20219;-69
2022/08/14 08:52:25;;;;;;;5.60;2.80;;;;;;;;;;6209027;23;20025;-70
2022/08/14 08:55:01;;;;;;;7.60;3.53;;;;;;;;;;6209688;23;20086;-58
2022/08/14 08:57:36;;;;;;;12.50;2.95;;;;;;;;;;6209622;23;20029;-46
2022/08/14 09:00:16;;;;;;;7.88;3.20;;;;;;;;;;6206910;23;20021;-44
2022/08/14 09:02:53;;;;;;;5.43;3.33;;;;;;;;;;6204089;23;20536;-44
2022/08/14 09:05:27;;;;;;;7.75;3.10;;;;;;;;;;6204280;23;20025;-44
2022/08/14 09:07:54;;;;;;;5.65;3.17;;;;;;;;;;6205611;23;20032;-45
2022/08/14 09:10:22;;;;;;;4.47;3.30;;;;;;;;;;6206961;23;20028;-44
2022/08/14 09:12:57;;;;;;;7.63;3.20;;;;;;;;;;6206982;23;20551;-59
2022/08/14 09:15:26;;;;;;;12.50;3.28;;;;;;;;;;6206148;23;20032;-58
2022/08/14 09:18:09;;;;;;;9.63;3.08;;;;;;;;;;6210645;23;20025;-48
2022/08/14 09:20:47;;;;;;;11.48;2.90;;;;;;;;;;6208995;23;20024;-50
2022/08/14 09:23:16;;;;;;;5.07;3.47;;;;;;;;;;6210636;23;20024;-48
2022/08/14 09:26:07;;;;;;;5.30;2.90;;;;;;;;;;6180431;23;20382;-46
2022/08/14 09:28:47;;;;;;;4.38;3.17;;;;;;;;;;6180308;23;20096;-47
2022/08/14 09:31:22;;;;;;;4.28;3.28;;;;;;;;;;6180600;23;20438;-46
2022/08/14 09:34:02;;;;;;;3.45;3.15;;;;;;;;;;6179475;23;20032;-45
2022/08/14 09:37:12;;;;;;;3.60;3.03;;;;;;;;;;6180032;23;20025;-59
2022/08/14 09:39:52;;;;;;;5.28;2.83;;;;;;;;;;6179844;23;20033;-58
2022/08/14 09:42:42;;;;;;;5.45;3.10;;;;;;;;;;6176266;23;20111;-58
2022/08/14 09:45:18;;;;;;;4.53;2.70;;;;;;;;;;6180073;23;20056;-58
2022/08/14 09:48:13;;;;;;;5.38;3.17;;;;;;;;;;6179618;23;20510;-58
2022/08/14 09:50:48;;;;;;;5.75;2.95;;;;;;;;;;6180788;23;20021;-63
2022/08/14 09:53:42;;;;;;;5.32;3.20;;;;;;;;;;6181370;23;20064;-69
2022/08/14 09:56:30;;;;;;;7.55;2.97;;;;;;;;;;6181045;23;20027;-61
2022/08/14 09:59:13;;;;;;;5.93;3.22;;;;;;;;;;6180644;23;20056;-61
2022/08/14 10:01:42;;;;;;;3.90;2.60;;;;;;;;;;6180279;23;20032;-61
2022/08/14 10:04:19;;;;;;;7.18;2.75;;;;;;;;;;6180756;23;20031;-61
2022/08/14 10:07:05;;;;;;;5.32;2.70;;;;;;;;;;6179412;23;20029;-60
2022/08/14 10:09:49;;;;;;;4.75;3.03;;;;;;;;;;6180103;23;20025;-47
2022/08/14 10:12:38;;;;;;;5.40;3.30;;;;;;;;;;6180154;23;20366;-61
2022/08/14 10:15:14;;;;;;;5.72;2.85;;;;;;;;;;6180302;23;20726;-54
2022/08/14 10:17:41;;;;;;;3.60;2.65;;;;;;;;;;6179834;23;20063;-57
2022/08/14 10:20:13;;;;;;;5.50;2.85;;;;;;;;;;6179997;23;20470;-55
2022/08/14 10:23:14;;;;;;;7.28;2.90;;;;;;;;;;6180673;23;20027;-56
2022/08/14 10:25:52;;;;;;;3.92;2.78;;;;;;;;;;6207099;23;20086;-55
2022/08/14 10:28:26;;;;;;;5.60;2.70;;;;;;;;;;6211013;23;20520;-70
2022/08/14 10:31:20;;;;;;;5.90;2.70;;;;;;;;;;6211034;23;20091;-61
2022/08/14 10:34:03;;;;;;;7.15;2.72;;;;;;;;;;6209802;23;20040;-71
2022/08/14 10:36:40;;;;;;;6.72;2.50;;;;;;;;;;6210019;23;20099;-70
2022/08/14 10:39:25;;;;;;;3.97;2.75;;;;;;;;;;6209814;23;20071;-68
2022/08/14 10:42:05;;;;;;;5.63;2.78;;;;;;;;;;6185115;23;20020;-70
2022/08/14 10:44:47;;;;;;;4.32;2.90;;;;;;;;;;6209937;23;20020;-70
2022/08/14 10:47:18;;;;;;;3.70;2.67;;;;;;;;;;6210025;23;20558;-56
2022/08/14 10:50:15;;;;;;;6.72;2.50;;;;;;;;;;6209560;23;20048;-60
2022/08/14 10:52:45;;;;;;;3.45;2.83;;;;;;;;;;6210903;23;20537;-61
2022/08/14 10:55:21;;;;;;;3.15;2.67;;;;;;;;;;6209399;23;20057;-61
2022/08/14 10:57:49;;;;;;;5.00;2.58;;;;;;;;;;6211106;23;20087;-60
2022/08/14 11:00:28;;;;;;;4.90;2.50;;;;;;;;;;6209413;23;20052;-60
2022/08/14 11:03:08;;;;;;;2.63;2.40;;;;;;;;;;6210070;23;20020;-60
2022/08/14 11:05:40;;;;;;;6.75;2.80;;;;;;;;;;6209174;23;20028;-59
2022/08/14 11:08:15;;;;;;;3.03;2.53;;;;;;;;;;6210258;23;20020;-44
2022/08/14 11:10:45;;;;;;;5.00;2.40;;;;;;;;;;6208698;23;20028;-55
2022/08/14 11:13:23;;;;;;;4.13;2.78;;;;;;;;;;6210829;23;20052;-57
2022/08/14 11:16:00;;;;;;;3.38;2.63;;;;;;;;;;6209047;23;20035;-55
2022/08/14 11:18:29;;;;;;;4.88;2.60;;;;;;;;;;6209539;23;20401;-55
2022/08/14 11:21:07;;;;;;;5.50;2.60;;;;;;;;;;6209669;23;20020;-56
2022/08/14 11:23:44;;;;;;;3.78;2.33;;;;;;;;;;6209857;23;20021;-55
2022/08/14 11:26:28;;;;;;;5.05;2.40;;;;;;;;;;6209651;23;20402;-61
2022/08/14 11:28:58;;;;;;;4.13;2.60;;;;;;;;;;6183757;23;20471;-56
2022/08/14 11:31:36;;;;;;;4.75;2.83;;;;;;;;;;6208879;23;20020;-70
2022/08/14 11:34:06;;;;;;;3.75;2.53;;;;;;;;;;6209879;23;20047;-69
2022/08/14 11:37:07;;;;;;;5.47;2.83;;;;;;;;;;6208877;23;20020;-69
2022/08/14 11:39:52;;;;;;;3.97;2.60;;;;;;;;;;6209157;23;20076;-69
2022/08/14 11:42:28;;;;;;;4.90;2.90;;;;;;;;;;6209493;23;20056;-70
2022/08/14 11:45:15;;;;;;;2.92;2.60;;;;;;;;;;6209169;23;20112;-59
2022/08/14 11:47:55;;;;;;;5.38;2.28;;;;;;;;;;6206539;23;20021;-48
2022/08/14 11:50:43;;;;;;;6.20;2.70;;;;;;;;;;6208375;23;20100;-58
2022/08/14 11:53:19;;;;;;;4.97;2.30;;;;;;;;;;6207016;23;20017;-58
2022/08/14 11:55:46;;;;;;;3.13;2.33;;;;;;;;;;6207849;23;20024;-56
2022/08/14 11:58:16;;;;;;;4.18;2.38;;;;;;;;;;6210837;23;20032;-58
2022/08/14 12:00:58;;;;;;;2.42;2.15;;;;;;;;;;6206506;23;20024;-58
2022/08/14 12:03:37;;;;;;;2.70;2.05;;;;;;;;;;6209684;23;20021;-58
2022/08/14 12:06:19;;;;;;;5.35;2.22;;;;;;;;;;6209371;23;20028;-59
2022/08/14 12:09:04;;;;;;;18.15;3.95;;;;;;;;;;6208540;23;20028;-59
2022/08/14 12:11:43;;;;;;;9.35;3.55;;;;;;;;;;6208090;23;20115;-59
2022/08/14 12:14:17;;;;;;;7.35;2.50;;;;;;;;;;6210716;23;20032;-58
2022/08/14 12:17:03;;;;;;;10.38;2.80;;;;;;;;;;6208212;23;20474;-59
2022/08/14 12:19:31;;;;;;;14.73;2.50;;;;;;;;;;6208938;23;20083;-59
2022/08/14 12:22:06;;;;;;;8.32;2.20;;;;;;;;;;6208937;23;20024;-59
2022/08/14 12:24:41;;;;;;;10.20;2.58;;;;;;;;;;6208962;23;20031;-61
2022/08/14 12:27:23;;;;;;;2.47;2.15;;;;;;;;;;6208725;23;20474;-59
2022/08/14 12:29:52;;;;;;;4.53;2.53;;;;;;;;;;6208974;23;20048;-59
2022/08/14 12:32:37;;;;;;;2.95;2.10;;;;;;;;;;6208537;23;20021;-59
2022/08/14 12:35:04;;;;;;;;;;;;;;;;;;6208953;23;20251;-59
2022/08/14 12:37:38;;;;;;;10.07;3.10;;;;;;;;;;6209742;23;19970;-58
2022/08/14 12:40:12;;;;;;;14.43;3.40;;;;;;;;;;6210162;23;20029;-59
2022/08/14 12:42:47;;;;;;;4.30;2.30;;;;;;;;;;6209902;23;20025;-50
2022/08/14 12:45:30;;;;;;;2.08;1.88;;;;;;;;;;6209281;23;20091;-59
2022/08/14 12:48:04;;;;;;;3.33;2.35;;;;;;;;;;6211800;23;20024;-59
2022/08/14 12:50:52;;;;;;;4.57;2.10;;;;;;;;;;6207706;23;20458;-59
2022/08/14 12:53:38;;;;;;;3.45;2.00;;;;;;;;;;6211299;23;20075;-59
2022/08/14 12:56:06;;;;;;;2.45;1.90;;;;;;;;;;6210635;23;20021;-59
2022/08/14 12:58:57;;;;;;;2.83;2.10;;;;;;;;;;6211268;23;20020;-59
2022/08/14 13:01:29;;;;;;;4.78;2.30;;;;;;;;;;6210380;23;20067;-65
2022/08/14 13:04:30;;;;;;;;;;;;;;;;;;6210587;23;20095;-65
2022/08/14 13:07:07;;;;;;;3.47;2.28;;;;;;;;;;6210511;23;20282;-65
2022/08/14 13:09:41;;;;;;;2.30;2.10;;;;;;;;;;6212319;23;20077;-66
2022/08/14 13:12:09;;;;;;;3.15;2.20;;;;;;;;;;6210810;23;20104;-66
2022/08/14 13:15:00;;;;;;;4.15;2.25;;;;;;;;;;6211004;23;20025;-64
2022/08/14 13:17:43;;;;;;;7.68;2.35;;;;;;;;;;6211751;23;20070;-64
2022/08/14 13:20:12;;;;;;;4.93;2.20;;;;;;;;;;6211987;23;20548;-52
2022/08/14 13:22:51;;;;;;;3.08;2.40;;;;;;;;;;6211058;23;20028;-59
2022/08/14 13:25:26;;;;;;;7.07;2.17;;;;;;;;;;6210517;23;20359;-58
2022/08/14 13:28:03;;;;;;;7.47;2.10;;;;;;;;;;6210852;23;20025;-60
2022/08/14 13:30:38;;;;;;;3.63;2.22;;;;;;;;;;6211281;23;20031;-59
2022/08/14 13:33:12;;;;;;;4.65;2.65;;;;;;;;;;6211781;23;20024;-59
2022/08/14 13:35:46;;;;;;;5.95;2.33;;;;;;;;;;6210223;23;20031;-59
2022/08/14 13:38:20;;;;;;;5.78;2.33;;;;;;;;;;6212371;23;20021;-59
2022/08/14 13:40:54;;;;;;;6.35;2.30;;;;;;;;;;6210423;23;20405;-66
2022/08/14 13:43:28;;;;;;;4.20;2.28;;;;;;;;;;6211568;23;20024;-56
2022/08/14 13:46:02;;;;;;;4.07;2.53;;;;;;;;;;6210709;23;20033;-55
2022/08/14 13:48:37;;;;;;;2.95;2.20;;;;;;;;;;6209145;23;20024;-55
2022/08/14 13:51:09;;;;;;;5.72;2.60;;;;;;;;;;6209066;23;20025;-53
2022/08/14 13:53:43;;;;;;;2.83;2.50;;;;;;;;;;6211367;23;20028;-53
2022/08/14 13:56:37;;;;;;;2.88;2.10;;;;;;;;;;6210771;23;20021;-53
2022/08/14 13:59:05;;;;;;;2.45;2.20;;;;;;;;;;6210847;23;20477;-60
2022/08/14 14:01:46;;;;;;;6.32;2.50;;;;;;;;;;6210079;23;20541;-59
2022/08/14 14:04:18;;;;;;;4.00;2.08;;;;;;;;;;6206354;23;20087;-59
2022/08/14 14:07:04;;;;;;;7.15;2.25;;;;;;;;;;6219297;22;20082;-50
2022/08/14 14:09:32;;;;;;;2.88;2.00;;;;;;;;;;6239917;23;20020;-44
2022/08/14 14:12:19;;;;;;;5.03;2.17;;;;;;;;;;6241436;23;20051;-46
2022/08/14 14:15:08;;;;;;;6.60;1.90;;;;;;;;;;6240225;23;20087;-49
2022/08/14 14:17:46;;;;;;;3.22;2.00;;;;;;;;;;6237929;23;20020;-46
2022/08/14 14:20:15;;;;;;;5.47;2.17;;;;;;;;;;6240656;23;20099;-47
2022/08/14 14:23:01;;;;;;;;;;;;;;;;;;6240637;23;20020;-58
2022/08/14 14:25:41;;;;;;;3.70;1.90;;;;;;;;;;6239409;23;20247;-61
2022/08/14 14:28:25;;;;;;;8.65;2.17;;;;;;;;;;6240237;23;20031;-62
2022/08/14 14:30:56;;;;;;;2.63;2.10;;;;;;;;;;6240217;23;20020;-62
2022/08/14 14:33:39;;;;;;;2.63;2.10;;;;;;;;;;6240081;23;20111;-62
2022/08/14 14:36:25;;;;;;;2.78;2.00;;;;;;;;;;6214440;23;20126;-62
2022/08/14 14:39:07;;;;;;;2.53;2.20;;;;;;;;;;6240356;22;20031;-74
2022/08/14 14:41:40;;;;;;;3.15;2.00;;;;;;;;;;6240399;23;20024;-74
2022/08/14 14:44:23;;;;;;;2.45;2.15;;;;;;;;;;6239457;23;20020;-74
2022/08/14 14:46:50;;;;;;;5.97;1.88;;;;;;;;;;6236967;23;20074;-75
2022/08/14 14:49:25;;;;;;;2.22;2.00;;;;;;;;;;6239560;23;20043;-74
2022/08/14 14:52:12;;;;;;;2.38;2.00;;;;;;;;;;6240229;23;20103;-74
2022/08/14 14:54:56;;;;;;;2.47;2.08;;;;;;;;;;6240615;23;20020;-74
2022/08/14 14:57:25;;;;;;;6.68;2.28;;;;;;;;;;6239573;23;20024;-74
2022/08/14 15:00:01;;;;;;;;;;;;;;;;;;6238837;23;20161;-74
2022/08/14 15:02:40;;;;;;;3.05;2.00;;;;;;;;;;6235355;23;20367;-74
2022/08/14 15:05:17;;;;;;;3.47;2.05;;;;;;;;;;6236494;23;20035;-74
2022/08/14 15:07:45;;;;;;;3.92;2.15;;;;;;;;;;6208955;23;20028;-75
2022/08/14 15:10:16;;;;;;;2.97;1.95;;;;;;;;;;6238703;23;20046;-75
2022/08/14 15:12:57;;;;;;;6.00;2.33;;;;;;;;;;6238902;23;20047;-75
2022/08/14 15:15:30;;;;;;;3.92;2.10;;;;;;;;;;6239594;23;20020;-75
2022/08/14 15:18:09;;;;;;;7.25;2.20;;;;;;;;;;6240016;23;20023;-75
2022/08/14 15:20:56;;;;;;;5.95;2.38;;;;;;;;;;6237612;23;20098;-75
2022/08/14 15:23:31;;;;;;;3.50;2.08;;;;;;;;;;6236808;23;20333;-75
2022/08/14 15:26:12;;;;;;;3.67;2.28;;;;;;;;;;6238681;23;20107;-75
2022/08/14 15:28:57;;;;;;;4.28;2.33;;;;;;;;;;6238867;23;20103;-75
2022/08/14 15:31:31;;;;;;;7.20;2.20;;;;;;;;;;6240552;23;20093;-74
2022/08/14 15:34:17;;;;;;;4.22;2.08;;;;;;;;;;6237494;23;20082;-75
2022/08/14 15:37:05;;;;;;;2.30;2.10;;;;;;;;;;6239014;23;20020;-75
2022/08/14 15:39:50;;;;;;;2.47;2.22;;;;;;;;;;6241155;22;20074;-75
2022/08/14 15:42:21;;;;;;;5.53;2.45;;;;;;;;;;6238960;23;20082;-75
2022/08/14 15:44:56;;;;;;;6.38;2.33;;;;;;;;;;6238018;23;20461;-75
2022/08/14 15:47:27;;;;;;;4.10;2.40;;;;;;;;;;6239367;23;20063;-76
2022/08/14 15:50:09;;;;;;;5.32;2.28;;;;;;;;;;6237828;23;20104;-75
2022/08/14 15:52:36;;;;;;;6.72;2.20;;;;;;;;;;6238385;23;20028;-75
2022/08/14 15:55:12;;;;;;;4.05;2.20;;;;;;;;;;6240339;23;20107;-75
2022/08/14 15:57:41;;;;;;;2.58;2.28;;;;;;;;;;6236141;23;20117;-75
2022/08/14 16:03:24;;;;;;;3.70;2.42;;;;;;;;;;6237475;23;20020;-75
2022/08/14 16:06:05;;;;;;;2.95;2.13;;;;;;;;;;6237980;23;20024;-75
2022/08/14 16:08:50;;;;;;;4.47;2.05;;;;;;;;;;6239453;23;20020;-75
2022/08/14 16:11:27;;;;;;;3.50;2.20;;;;;;;;;;6236693;23;20085;-75
2022/08/14 16:14:03;;;;;;;3.08;1.90;;;;;;;;;;6236255;23;20027;-75
2022/08/14 16:16:40;;;;;;;7.47;2.40;;;;;;;;;;6239251;23;20530;-75
2022/08/14 16:19:19;;;;;;;3.65;2.50;;;;;;;;;;6239821;23;20477;-75
2022/08/14 16:21:48;;;;;;;2.97;2.38;;;;;;;;;;6236126;23;20059;-75
2022/08/14 16:24:43;;;;;;;4.03;2.00;;;;;;;;;;6239938;23;20024;-75
2022/08/14 16:27:30;;;;;;;5.55;2.08;;;;;;;;;;6239158;23;20458;-74
2022/08/14 16:30:13;;;;;;;2.90;2.30;;;;;;;;;;6237923;23;20027;-75
2022/08/14 16:32:55;;;;;;;2.30;2.10;;;;;;;;;;6237540;23;20548;-75
2022/08/14 16:35:35;;;;;;;3.58;2.30;;;;;;;;;;6239281;23;20028;-75
2022/08/14 16:38:31;;;;;;;3.65;2.17;;;;;;;;;;6231636;22;20396;-74
2022/08/14 16:41:27;;;;;;;4.30;1.90;;;;;;;;;;6232993;23;20054;-74
2022/08/14 16:44:12;;;;;;;5.78;2.38;;;;;;;;;;6234326;23;20029;-74
2022/08/14 16:47:01;;;;;;;3.20;2.25;;;;;;;;;;6234865;23;20016;-74
2022/08/14 16:49:29;;;;;;;9.45;2.50;;;;;;;;;;6235078;23;20086;-75
2022/08/14 16:52:23;;;;;;;4.90;2.10;;;;;;;;;;6235692;23;20544;-74
2022/08/14 16:55:11;;;;;;;2.83;2.10;;;;;;;;;;6235021;23;20461;-74
2022/08/14 16:57:50;;;;;;;4.38;2.40;;;;;;;;;;6235810;23;20108;-74
2022/08/14 17:00:31;;;;;;;6.50;2.72;;;;;;;;;;6235419;23;20028;-74
2022/08/14 17:03:11;;;;;;;6.97;2.20;;;;;;;;;;6211504;23;20024;-74
2022/08/14 17:05:41;;;;;;;4.68;2.47;;;;;;;;;;6235177;23;20055;-74
2022/08/14 17:08:21;;;;;;;3.67;2.50;;;;;;;;;;6235419;23;20028;-74
2022/08/14 17:11:08;;;;;;;4.15;2.70;;;;;;;;;;6236085;23;20024;-75
2022/08/14 17:13:44;;;;;;;5.95;2.65;;;;;;;;;;6235907;23;20047;-74
2022/08/14 17:16:35;;;;;;;6.05;2.88;;;;;;;;;;6236477;23;20028;-74
2022/08/14 17:19:15;;;;;;;3.53;2.95;;;;;;;;;;6235430;23;20043;-74
2022/08/14 17:21:46;;;;;;;4.68;2.90;;;;;;;;;;6236208;23;20028;-74
2022/08/14 17:24:23;;;;;;;9.35;3.38;;;;;;;;;;6236710;23;20421;-75
2022/08/14 17:27:11;;;;;;;3.92;2.92;;;;;;;;;;6235708;23;20348;-74
2022/08/14 17:29:45;;;;;;;8.93;3.13;;;;;;;;;;6237114;23;20484;-75
2022/08/14 17:32:37;;;;;;;7.43;3.10;;;;;;;;;;6234926;23;20017;-74
2022/08/14 17:35:26;;;;;;;5.65;2.92;;;;;;;;;;6236489;23;20111;-75
2022/08/14 17:38:19;;;;;;;5.97;3.25;;;;;;;;;;6238050;22;20034;-74
2022/08/14 17:41:22;;;;;;;10.13;3.22;;;;;;;;;;6237706;23;20024;-74
2022/08/14 17:43:49;;;;;;;9.10;3.05;;;;;;;;;;6238622;23;20028;-74
2022/08/14 17:46:33;;;;;;;12.35;2.80;;;;;;;;;;6235943;23;20020;-75
2022/08/14 17:49:06;;;;;;;5.57;3.50;;;;;;;;;;6238108;23;20055;-75
2022/08/14 17:51:53;;;;;;;6.68;2.92;;;;;;;;;;6237904;23;20546;-75
2022/08/14 17:54:22;;;;;;;5.80;3.15;;;;;;;;;;6237511;23;20020;-74
2022/08/14 17:57:03;;;;;;;9.02;3.25;;;;;;;;;;6238487;23;20428;-74
2022/08/14 17:59:40;;;;;;;6.50;3.05;;;;;;;;;;6238587;23;20071;-74
2022/08/14 18:02:15;;;;;;;3.20;2.85;;;;;;;;;;6236128;23;20027;-74
2022/08/14 18:04:43;;;;;;;5.07;3.17;;;;;;;;;;6238628;23;20070;-74
2022/08/14 18:07:14;;;;;;;5.93;3.10;;;;;;;;;;6238545;23;20688;-74
2022/08/14 18:10:08;;;;;;;4.47;3.15;;;;;;;;;;6237323;23;20099;-74
2022/08/14 18:12:55;;;;;;;5.10;3.40;;;;;;;;;;6236704;23;20024;-75
2022/08/14 18:15:29;;;;;;;12.15;4.13;;;;;;;;;;6237279;23;20028;-74
2022/08/14 18:18:05;;;;;;;8.82;3.33;;;;;;;;;;6236841;23;20024;-74
2022/08/14 18:20:42;;;;;;;8.15;3.40;;;;;;;;;;6238029;23;20093;-75
2022/08/14 18:23:30;;;;;;;12.30;4.05;;;;;;;;;;6213644;23;20495;-74
2022/08/14 18:26:09;;;;;;;5.18;3.35;;;;;;;;;;6237585;23;20034;-75
2022/08/14 18:28:56;;;;;;;;;;;;;;;;;;6238307;23;20435;-73
2022/08/14 18:31:34;;;;;;;10.43;3.70;;;;;;;;;;6236875;23;20400;-74
2022/08/14 18:34:12;;;;;;;4.63;3.22;;;;;;;;;;6237970;23;20031;-74
2022/08/14 18:36:58;;;;;;;3.92;3.33;;;;;;;;;;6238030;23;20566;-75
2022/08/14 18:39:48;;;;;;;6.80;3.45;;;;;;;;;;6238577;22;20035;-74
2022/08/14 18:42:33;;;;;;;5.88;3.65;;;;;;;;;;6237302;23;20020;-74
2022/08/14 18:45:01;;;;;;;4.35;3.10;;;;;;;;;;6237481;23;20024;-74
2022/08/14 18:47:42;;;;;;;7.13;3.42;;;;;;;;;;6234778;23;20028;-74
2022/08/14 18:50:31;;;;;;;4.63;3.40;;;;;;;;;;6237546;23;20376;-74
2022/08/14 18:53:08;;;;;;;7.68;3.53;;;;;;;;;;6236958;23;20024;-74
2022/08/14 18:55:37;;;;;;;15.07;3.30;;;;;;;;;;6239048;23;20027;-74
2022/08/14 18:58:22;;;;;;;6.85;3.05;;;;;;;;;;6237988;23;20031;-74
2022/08/14 19:01:01;;;;;;;7.40;3.65;;;;;;;;;;6236464;23;20020;-74
2022/08/14 19:03:35;;;;;;;2.97;2.67;;;;;;;;;;6236916;23;20024;-74
2022/08/14 19:06:10;;;;;;;7.45;3.38;;;;;;;;;;6238300;23;20052;-74
2022/08/14 19:08:46;;;;;;;4.03;3.17;;;;;;;;;;6236215;23;20469;-75
2022/08/14 19:11:36;;;;;;;6.00;3.75;;;;;;;;;;6237566;23;20749;-75
2022/08/14 19:14:04;;;;;;;4.93;3.47;;;;;;;;;;6237548;23;20044;-74
2022/08/14 19:16:43;;;;;;;3.92;3.20;;;;;;;;;;6238801;23;20024;-74
2022/08/14 19:19:23;;;;;;;6.85;3.40;;;;;;;;;;6237203;23;20063;-75
2022/08/14 19:21:58;;;;;;;4.63;3.40;;;;;;;;;;6212719;23;20024;-75
2022/08/14 19:35:52;;;;;;;4.65;3.30;;;;;;;;;;6264276;22;20027;-48
2022/08/14 19:38:46;;;;;;;8.43;3.67;;;;;;;;;;6265442;22;20023;-50
2022/08/14 19:41:18;;;;;;;6.50;3.88;;;;;;;;;;6264753;22;20023;-48
2022/08/14 19:44:06;;;;;;;7.55;4.00;;;;;;;;;;6266393;22;20136;-45
2022/08/14 19:46:37;;;;;;;3.97;3.60;;;;;;;;;;6264127;22;20027;-46
2022/08/14 19:49:31;;;;;;;7.13;3.72;;;;;;;;;;6266102;22;20111;-47
2022/08/14 19:52:20;;;;;;;8.48;3.90;;;;;;;;;;6265500;22;20030;-44
2022/08/14 19:54:56;;;;;;;4.95;3.50;;;;;;;;;;6265566;22;20063;-47
2022/08/14 19:57:23;;;;;;;;;;;;;;;;;;6266702;22;20030;-46
2022/08/14 20:00:11;;;;;;;5.93;3.70;;;;;;;;;;6266486;22;19919;-59
2022/08/14 20:03:02;;;;;;;8.93;3.97;;;;;;;;;;6264977;22;20027;-60
2022/08/14 20:05:38;;;;;;;10.95;4.47;;;;;;;;;;6266930;22;20050;-47
2022/08/14 20:08:13;;;;;;;7.70;3.53;;;;;;;;;;6264838;22;20023;-43
2022/08/14 20:11:01;;;;;;;7.72;3.70;;;;;;;;;;6263682;22;20099;-43
2022/08/14 20:13:57;;;;;;;9.88;4.07;;;;;;;;;;6265495;22;20020;-44